Atlas Leader — 7JHL — position and weather

sailwx.info

Track history (hours):
 
Tides and Currents Weather Stations Pressure Air Temp Water Temp Dewpoint Dewpoint Depression Visibility Wind Speed Wind Dir Waves Ship Positions

Atlas Leader

Last reported at 2018-Jun-24 04:57 UTC. Time now 2018-Jun-24 05:24 UTC.
Position N 34°23' W 120°45'.

Length 199 m; draft 8.3 m.

Type: Cargo ship. MMSI: 432783000.

Date/timePositionNaut miles runAvg speedWind from/ knotsBaromVisibWave heightAir tempDewpointWater temp
2018-Jun-24 04:57N 34°23' W 120°45'511.7
2018-Jun-24 04:30N 34°24' W 120°51'510.9
2018-Jun-24 04:00N 34°28' W 120°57'815.9
2018-Jun-24 03:30N 34°34' W 121°02'917.9
2018-Jun-24 03:00N 34°41' W 121°09'917.6
2018-Jun-24 02:30N 34°48' W 121°15'713.5
2018-Jun-24 02:00N 34°54' W 121°20'613.0
2018-Jun-24 01:30N 34°59' W 121°25'612.9
2018-Jun-24 01:00N 35°04' W 121°30'3 6.3
2018-Jun-24 00:30N 35°07' W 121°32'510.3
2018-Jun-24 00:00N 35°11' W 121°36'917.2
2018-Jun-23 23:30N 35°18' W 121°42'816.4
2018-Jun-23 23:00N 35°24' W 121°49'612.8
2018-Jun-23 22:30N 35°29' W 121°53'612.6
2018-Jun-23 22:00N 35°34' W 121°58'613.0
2018-Jun-23 21:30N 35°39' W 122°03'612.7
2018-Jun-23 21:00N 35°44' W 122°08'612.7
2018-Jun-23 20:30N 35°49' W 122°12'712.8
2018-Jun-23 19:59N 35°55' W 122°18'612.8
2018-Jun-23 19:30N 35°59' W 122°22'712.8
2018-Jun-23 19:00N 36°04' W 122°27'612.9
2018-Jun-23 18:30N 36°10' W 122°32'612.7
2018-Jun-23 18:00N 36°15' W 122°36'612.6
2018-Jun-23 17:30N 36°20' W 122°41'712.6
2018-Jun-23 16:59N 36°25' W 122°46'612.8
2018-Jun-23 16:31N 36°30' W 122°51'612.4
2018-Jun-23 16:00N 36°34' W 122°56'612.4
2018-Jun-23 15:30N 36°39' W 123°01'612.3
2018-Jun-23 15:00N 36°44' W 123°05'713.6
2018-Jun-23 14:30N 36°50' W 123°11'816.9
2018-Jun-23 14:00N 36°56' W 123°17'816.9
2018-Jun-23 13:30N 37°03' W 123°23'917.1
2018-Jun-23 13:00N 37°09' W 123°30'916.7
2018-Jun-23 12:28N 37°16' W 123°38'816.6
2018-Jun-23 12:00N 37°22' W 123°44'916.8
2018-Jun-23 11:30N 37°29' W 123°50'816.7
2018-Jun-23 11:00N 37°36' W 123°56'816.8
2018-Jun-23 10:30N 37°42' W 124°03'816.9
2018-Jun-23 10:00N 37°49' W 124°09'917.2
2018-Jun-23 09:30N 37°57' W 124°13'917.6
2018-Jun-23 09:00N 38°06' W 124°15'917.6
2018-Jun-23 08:30N 38°15' W 124°18'917.4
2018-Jun-23 08:00N 38°23' W 124°20'817.0
2018-Jun-23 07:30N 38°31' W 124°23'916.9
2018-Jun-23 07:00N 38°39' W 124°26'3117.7
2018-Jun-23 05:15N 39°09' W 124°36'29514.7
2018-Jun-22 09:11N 44°01' W 125°27'317.6
2018-Jun-22 09:00N 44°05' W 125°27'2817.5
2018-Jun-22 07:25N 44°32' W 125°30'818.3
2018-Jun-22 06:57N 44°41' W 125°31'818.2
2018-Jun-22 06:30N 44°49' W 125°32'1417.8
2018-Jun-22 05:42N 45°03' W 125°33'317.7
2018-Jun-22 05:31N 45°06' W 125°34'917.7
2018-Jun-22 05:01N 45°15' W 125°35'1117.9
2018-Jun-22 04:25N 45°26' W 125°37'717.8
2018-Jun-22 04:00N 45°33' W 125°37'918.0
2018-Jun-22 03:31N 45°42' W 125°38'714.8
2018-Jun-22 03:00N 45°49' W 125°39'712.7
2018-Jun-22 02:29N 45°56' W 125°40'613.0
2018-Jun-22 02:00N 46°02' W 125°41'713.0
2018-Jun-22 01:30N 46°09' W 125°42'713.0
2018-Jun-22 00:57N 46°16' W 125°43'713.2
2018-Jun-22 00:25N 46°23' W 125°44'512.8
2018-Jun-22 00:00N 46°28' W 125°44'612.8
2018-Jun-21 23:30N 46°35' W 125°45'712.8
2018-Jun-21 22:59N 46°41' W 125°46'712.8
2018-Jun-21 22:27N 46°48' W 125°47'612.8
2018-Jun-21 22:00N 46°54' W 125°48'812.8
2018-Jun-21 21:22N 47°02' W 125°49'1612.8
2018-Jun-21 20:05N 47°18' W 125°51'3114.3
2018-Jun-21 17:54N 47°49' W 125°55'2615.2
2018-Jun-21 16:09N 48°15' W 125°46'216.6
2018-Jun-21 16:00N 48°16' W 125°42'917.0
2018-Jun-21 15:30N 48°21' W 125°32'917.4
2018-Jun-21 14:58N 48°27' W 125°21'816.1
2018-Jun-21 14:30N 48°30' W 125°11'816.3
2018-Jun-21 14:00N 48°31' W 124°58'816.5
2018-Jun-21 13:30N 48°31' W 124°46'817.0
2018-Jun-21 13:00N 48°28' W 124°34'917.4
2018-Jun-21 12:30N 48°25' W 124°22'917.6
2018-Jun-21 12:00N 48°21' W 124°10'1017.8
2018-Jun-21 11:28N 48°18' W 123°56'2213.9
2018-Jun-21 09:53N 48°23' W 123°24'411.8
2018-Jun-21 09:30N 48°23' W 123°18'714.8
2018-Jun-21 09:00N 48°30' W 123°12'918.6
2018-Jun-21 08:30N 48°39' W 123°15'916.0
2018-Jun-21 07:58N 48°45' W 123°06'612.8
2018-Jun-21 07:29N 48°51' W 123°04'918.3
2018-Jun-21 07:00N 48°57' W 123°13'915.8
2018-Jun-21 06:26N 49°04' W 123°22'510.7
2018-Jun-21 06:00N 49°07' W 123°16'5 9.9
2018-Jun-21 05:30N 49°07' W 123°09'3 6.4
2018-Jun-21 04:59N 49°08' W 123°04'0 0.0
2018-Jun-21 04:28N 49°08' W 123°04'0 0.0
2018-Jun-21 03:58N 49°08' W 123°04'0 0.0
2018-Jun-21 03:28N 49°08' W 123°04'0 0.0
2018-Jun-21 02:58N 49°08' W 123°04'0 0.0
2018-Jun-21 02:28N 49°08' W 123°04'0 0.0
2018-Jun-21 01:58N 49°08' W 123°04'0 0.0
2018-Jun-21 01:28N 49°08' W 123°04'0 0.0
2018-Jun-21 00:58N 49°08' W 123°04'0 0.0
2018-Jun-21 00:28N 49°08' W 123°04'0 0.0
2018-Jun-20 23:58N 49°08' W 123°04'0 0.0
2018-Jun-20 23:28N 49°08' W 123°04'0 0.0
2018-Jun-20 22:58N 49°08' W 123°04'0 0.0
2018-Jun-20 22:28N 49°08' W 123°04'0 0.0
2018-Jun-20 21:58N 49°08' W 123°04'0 0.0
2018-Jun-20 21:28N 49°08' W 123°04'1 1.1
2018-Jun-20 20:59N 49°07' W 123°05'4 9.0
2018-Jun-20 20:30N 49°07' W 123°11'510.4
2018-Jun-20 20:00N 49°06' W 123°19'5 9.4
2018-Jun-20 19:29N 49°01' W 123°17'816.7
2018-Jun-20 19:00N 48°56' W 123°08'917.4
2018-Jun-20 18:28N 48°48' W 122°60'918.1
2018-Jun-20 17:59N 48°43' W 123°10'714.0
2018-Jun-20 17:30N 48°36' W 123°14'917.3
2018-Jun-20 17:01N 48°28' W 123°10'815.9
2018-Jun-20 16:30N 48°22' W 123°18'610.8
2018-Jun-20 15:56N 48°18' W 123°25'14 9.3
2018-Jun-20 14:28N 48°13' W 123°06'1118.2
2018-Jun-20 13:53N 48°12' W 122°50'817.4
2018-Jun-20 13:25N 48°07' W 122°40'1018.7
2018-Jun-20 12:53N 47°58' W 122°34'717.4
2018-Jun-20 12:30N 47°53' W 122°28'918.2
2018-Jun-20 12:00N 47°44' W 122°26'918.4
2018-Jun-20 11:31N 47°35' W 122°27'918.3
2018-Jun-20 11:01N 47°26' W 122°23'713.9
2018-Jun-20 10:30N 47°19' W 122°27'4 7.2
2018-Jun-20 10:00N 47°16' W 122°24'1 2.1
2018-Jun-20 09:28N 47°16' W 122°23'0 0.0
2018-Jun-20 04:21N 47°15' W 122°23'0 0.0
2018-Jun-19 15:15N 47°15' W 122°23'0 0.0
2018-Jun-19 14:51N 47°15' W 122°23'0 0.0
2018-Jun-19 13:22N 47°16' W 122°23'1 2.5
2018-Jun-19 12:57N 47°16' W 122°24'1 2.2
2018-Jun-19 12:29N 47°17' W 122°25'3 6.3
2018-Jun-19 12:00N 47°19' W 122°28'713.3
2018-Jun-19 11:31N 47°25' W 122°23'917.2
2018-Jun-19 11:01N 47°33' W 122°27'816.7
2018-Jun-19 10:31N 47°41' W 122°28'816.3
2018-Jun-19 10:01N 47°50' W 122°28'815.3
2018-Jun-19 09:30N 47°57' W 122°33'1313.5
2018-Jun-19 08:31N 48°08' W 122°43'1415.5
2018-Jun-19 07:37N 48°12' W 123°03'317.4
2018-Jun-19 07:27N 48°12' W 123°07'28 9.5
2018-Jun-19 04:30N 48°13' W 123°49'610.2
2018-Jun-19 03:57N 48°14' W 123°58'510.9
2018-Jun-19 03:30N 48°16' W 124°05'611.4
2018-Jun-19 02:58N 48°19' W 124°13'510.7
2018-Jun-19 02:29N 48°21' W 124°20'612.6
2018-Jun-19 02:00N 48°23' W 124°28'612.3
2018-Jun-19 01:30N 48°26' W 124°36'612.2
2018-Jun-19 01:00N 48°28' W 124°45'612.2
2018-Jun-19 00:30N 48°28' W 124°54'612.1
2018-Jun-19 00:00N 48°28' W 125°03'611.7
2018-Jun-18 23:29N 48°29' W 125°12'511.3
2018-Jun-18 23:00N 48°28' W 125°20'611.1
2018-Jun-18 22:30N 48°28' W 125°29'611.2
2018-Jun-18 22:00N 48°28' W 125°37'611.5
2018-Jun-18 21:30N 48°28' W 125°46'611.6
2018-Jun-18 21:00N 48°28' W 125°55'611.9
2018-Jun-18 20:30N 48°28' W 126°04'612.3
2018-Jun-18 20:00N 48°29' W 126°13'612.4
2018-Jun-18 19:30N 48°29' W 126°22'713.1
2018-Jun-18 19:00N 48°29' W 126°32'3 6.6
2018-Jun-18 18:30N 48°29' W 126°37'2 3.0
2018-Jun-18 18:01N 48°29' W 126°39'611.9
2018-Jun-18 17:30N 48°29' W 126°48'612.7
2018-Jun-18 17:01N 48°29' W 126°58'612.9
2018-Jun-18 16:30N 48°30' W 127°08'714.6
2018-Jun-18 16:00N 48°30' W 127°19'917.1
2018-Jun-18 15:30N 48°30' W 127°32'712.8
2018-Jun-18 14:59N 48°30' W 127°42'1412.1
2018-Jun-18 13:47N 48°30' W 128°04'  
Track history (hours):
 
Tides and Currents Weather Stations Pressure Air Temp Water Temp Dewpoint Dewpoint Depression Visibility Wind Speed Wind Dir Waves Ship Positions

Atlas Leader

Last reported at 2018-Jun-24 04:57 UTC. Time now 2018-Jun-24 05:24 UTC.
Position N 34°23' W 120°45'.

Length 199 m; draft 8.3 m.

Type: Cargo ship. MMSI: 432783000.

Date/timePositionNaut miles runAvg speedWind from/ knotsBaromVisibWave heightAir tempDewpointWater temp
2018-Jun-24 04:57N 34°23' W 120°45'511.7
2018-Jun-24 04:30N 34°24' W 120°51'510.9
2018-Jun-24 04:00N 34°28' W 120°57'815.9
2018-Jun-24 03:30N 34°34' W 121°02'917.9
2018-Jun-24 03:00N 34°41' W 121°09'917.6
2018-Jun-24 02:30N 34°48' W 121°15'713.5
2018-Jun-24 02:00N 34°54' W 121°20'613.0
2018-Jun-24 01:30N 34°59' W 121°25'612.9
2018-Jun-24 01:00N 35°04' W 121°30'3 6.3
2018-Jun-24 00:30N 35°07' W 121°32'510.3
2018-Jun-24 00:00N 35°11' W 121°36'917.2
2018-Jun-23 23:30N 35°18' W 121°42'816.4
2018-Jun-23 23:00N 35°24' W 121°49'612.8
2018-Jun-23 22:30N 35°29' W 121°53'612.6
2018-Jun-23 22:00N 35°34' W 121°58'613.0
2018-Jun-23 21:30N 35°39' W 122°03'612.7
2018-Jun-23 21:00N 35°44' W 122°08'612.7
2018-Jun-23 20:30N 35°49' W 122°12'712.8
2018-Jun-23 19:59N 35°55' W 122°18'612.8
2018-Jun-23 19:30N 35°59' W 122°22'712.8
2018-Jun-23 19:00N 36°04' W 122°27'612.9
2018-Jun-23 18:30N 36°10' W 122°32'612.7
2018-Jun-23 18:00N 36°15' W 122°36'612.6
2018-Jun-23 17:30N 36°20' W 122°41'712.6
2018-Jun-23 16:59N 36°25' W 122°46'612.8
2018-Jun-23 16:31N 36°30' W 122°51'612.4
2018-Jun-23 16:00N 36°34' W 122°56'612.4
2018-Jun-23 15:30N 36°39' W 123°01'612.3
2018-Jun-23 15:00N 36°44' W 123°05'713.6
2018-Jun-23 14:30N 36°50' W 123°11'816.9
2018-Jun-23 14:00N 36°56' W 123°17'816.9
2018-Jun-23 13:30N 37°03' W 123°23'917.1
2018-Jun-23 13:00N 37°09' W 123°30'916.7
2018-Jun-23 12:28N 37°16' W 123°38'816.6
2018-Jun-23 12:00N 37°22' W 123°44'916.8
2018-Jun-23 11:30N 37°29' W 123°50'816.7
2018-Jun-23 11:00N 37°36' W 123°56'816.8
2018-Jun-23 10:30N 37°42' W 124°03'816.9
2018-Jun-23 10:00N 37°49' W 124°09'917.2
2018-Jun-23 09:30N 37°57' W 124°13'917.6
2018-Jun-23 09:00N 38°06' W 124°15'917.6
2018-Jun-23 08:30N 38°15' W 124°18'917.4
2018-Jun-23 08:00N 38°23' W 124°20'817.0
2018-Jun-23 07:30N 38°31' W 124°23'916.9
2018-Jun-23 07:00N 38°39' W 124°26'3117.7
2018-Jun-23 05:15N 39°09' W 124°36'29514.7
2018-Jun-22 09:11N 44°01' W 125°27'317.6
2018-Jun-22 09:00N 44°05' W 125°27'2817.5
2018-Jun-22 07:25N 44°32' W 125°30'818.3
2018-Jun-22 06:57N 44°41' W 125°31'818.2
2018-Jun-22 06:30N 44°49' W 125°32'1417.8
2018-Jun-22 05:42N 45°03' W 125°33'317.7
2018-Jun-22 05:31N 45°06' W 125°34'917.7
2018-Jun-22 05:01N 45°15' W 125°35'1117.9
2018-Jun-22 04:25N 45°26' W 125°37'717.8
2018-Jun-22 04:00N 45°33' W 125°37'918.0
2018-Jun-22 03:31N 45°42' W 125°38'714.8
2018-Jun-22 03:00N 45°49' W 125°39'712.7
2018-Jun-22 02:29N 45°56' W 125°40'613.0
2018-Jun-22 02:00N 46°02' W 125°41'713.0
2018-Jun-22 01:30N 46°09' W 125°42'713.0
2018-Jun-22 00:57N 46°16' W 125°43'713.2
2018-Jun-22 00:25N 46°23' W 125°44'512.8
2018-Jun-22 00:00N 46°28' W 125°44'612.8
2018-Jun-21 23:30N 46°35' W 125°45'712.8
2018-Jun-21 22:59N 46°41' W 125°46'712.8
2018-Jun-21 22:27N 46°48' W 125°47'612.8
2018-Jun-21 22:00N 46°54' W 125°48'812.8
2018-Jun-21 21:22N 47°02' W 125°49'1612.8
2018-Jun-21 20:05N 47°18' W 125°51'3114.3
2018-Jun-21 17:54N 47°49' W 125°55'2615.2
2018-Jun-21 16:09N 48°15' W 125°46'216.6
2018-Jun-21 16:00N 48°16' W 125°42'917.0
2018-Jun-21 15:30N 48°21' W 125°32'917.4
2018-Jun-21 14:58N 48°27' W 125°21'816.1
2018-Jun-21 14:30N 48°30' W 125°11'816.3
2018-Jun-21 14:00N 48°31' W 124°58'816.5
2018-Jun-21 13:30N 48°31' W 124°46'817.0
2018-Jun-21 13:00N 48°28' W 124°34'917.4
2018-Jun-21 12:30N 48°25' W 124°22'917.6
2018-Jun-21 12:00N 48°21' W 124°10'1017.8
2018-Jun-21 11:28N 48°18' W 123°56'2213.9
2018-Jun-21 09:53N 48°23' W 123°24'411.8
2018-Jun-21 09:30N 48°23' W 123°18'714.8
2018-Jun-21 09:00N 48°30' W 123°12'918.6
2018-Jun-21 08:30N 48°39' W 123°15'916.0
2018-Jun-21 07:58N 48°45' W 123°06'612.8
2018-Jun-21 07:29N 48°51' W 123°04'918.3
2018-Jun-21 07:00N 48°57' W 123°13'915.8
2018-Jun-21 06:26N 49°04' W 123°22'510.7
2018-Jun-21 06:00N 49°07' W 123°16'5 9.9
2018-Jun-21 05:30N 49°07' W 123°09'3 6.4
2018-Jun-21 04:59N 49°08' W 123°04'0 0.0
2018-Jun-21 04:28N 49°08' W 123°04'0 0.0
2018-Jun-21 03:58N 49°08' W 123°04'0 0.0
2018-Jun-21 03:28N 49°08' W 123°04'0 0.0
2018-Jun-21 02:58N 49°08' W 123°04'0 0.0
2018-Jun-21 02:28N 49°08' W 123°04'0 0.0
2018-Jun-21 01:58N 49°08' W 123°04'0 0.0
2018-Jun-21 01:28N 49°08' W 123°04'0 0.0
2018-Jun-21 00:58N 49°08' W 123°04'0 0.0
2018-Jun-21 00:28N 49°08' W 123°04'0 0.0
2018-Jun-20 23:58N 49°08' W 123°04'0 0.0
2018-Jun-20 23:28N 49°08' W 123°04'0 0.0
2018-Jun-20 22:58N 49°08' W 123°04'0 0.0
2018-Jun-20 22:28N 49°08' W 123°04'0 0.0
2018-Jun-20 21:58N 49°08' W 123°04'0 0.0
2018-Jun-20 21:28N 49°08' W 123°04'1 1.1
2018-Jun-20 20:59N 49°07' W 123°05'4 9.0
2018-Jun-20 20:30N 49°07' W 123°11'510.4
2018-Jun-20 20:00N 49°06' W 123°19'5 9.4
2018-Jun-20 19:29N 49°01' W 123°17'816.7
2018-Jun-20 19:00N 48°56' W 123°08'917.4
2018-Jun-20 18:28N 48°48' W 122°60'918.1
2018-Jun-20 17:59N 48°43' W 123°10'714.0
2018-Jun-20 17:30N 48°36' W 123°14'917.3
2018-Jun-20 17:01N 48°28' W 123°10'815.9
2018-Jun-20 16:30N 48°22' W 123°18'610.8
2018-Jun-20 15:56N 48°18' W 123°25'14 9.3
2018-Jun-20 14:28N 48°13' W 123°06'1118.2
2018-Jun-20 13:53N 48°12' W 122°50'817.4
2018-Jun-20 13:25N 48°07' W 122°40'1018.7
2018-Jun-20 12:53N 47°58' W 122°34'717.4
2018-Jun-20 12:30N 47°53' W 122°28'918.2
2018-Jun-20 12:00N 47°44' W 122°26'918.4
2018-Jun-20 11:31N 47°35' W 122°27'918.3
2018-Jun-20 11:01N 47°26' W 122°23'713.9
2018-Jun-20 10:30N 47°19' W 122°27'4 7.2
2018-Jun-20 10:00N 47°16' W 122°24'1 2.1
2018-Jun-20 09:28N 47°16' W 122°23'0 0.0
2018-Jun-20 04:21N 47°15' W 122°23'0 0.0
2018-Jun-19 15:15N 47°15' W 122°23'0 0.0
2018-Jun-19 14:51N 47°15' W 122°23'0 0.0
2018-Jun-19 13:22N 47°16' W 122°23'1 2.5
2018-Jun-19 12:57N 47°16' W 122°24'1 2.2
2018-Jun-19 12:29N 47°17' W 122°25'3 6.3
2018-Jun-19 12:00N 47°19' W 122°28'713.3
2018-Jun-19 11:31N 47°25' W 122°23'917.2
2018-Jun-19 11:01N 47°33' W 122°27'816.7
2018-Jun-19 10:31N 47°41' W 122°28'816.3
2018-Jun-19 10:01N 47°50' W 122°28'815.3
2018-Jun-19 09:30N 47°57' W 122°33'1313.5
2018-Jun-19 08:31N 48°08' W 122°43'1415.5
2018-Jun-19 07:37N 48°12' W 123°03'317.4
2018-Jun-19 07:27N 48°12' W 123°07'28 9.5
2018-Jun-19 04:30N 48°13' W 123°49'610.2
2018-Jun-19 03:57N 48°14' W 123°58'510.9
2018-Jun-19 03:30N 48°16' W 124°05'611.4
2018-Jun-19 02:58N 48°19' W 124°13'510.7
2018-Jun-19 02:29N 48°21' W 124°20'612.6
2018-Jun-19 02:00N 48°23' W 124°28'612.3
2018-Jun-19 01:30N 48°26' W 124°36'612.2
2018-Jun-19 01:00N 48°28' W 124°45'612.2
2018-Jun-19 00:30N 48°28' W 124°54'612.1
2018-Jun-19 00:00N 48°28' W 125°03'611.7
2018-Jun-18 23:29N 48°29' W 125°12'511.3
2018-Jun-18 23:00N 48°28' W 125°20'611.1
2018-Jun-18 22:30N 48°28' W 125°29'611.2
2018-Jun-18 22:00N 48°28' W 125°37'611.5
2018-Jun-18 21:30N 48°28' W 125°46'611.6
2018-Jun-18 21:00N 48°28' W 125°55'611.9
2018-Jun-18 20:30N 48°28' W 126°04'612.3
2018-Jun-18 20:00N 48°29' W 126°13'612.4
2018-Jun-18 19:30N 48°29' W 126°22'713.1
2018-Jun-18 19:00N 48°29' W 126°32'3 6.6
2018-Jun-18 18:30N 48°29' W 126°37'2 3.0
2018-Jun-18 18:01N 48°29' W 126°39'611.9
2018-Jun-18 17:30N 48°29' W 126°48'612.7
2018-Jun-18 17:01N 48°29' W 126°58'612.9
2018-Jun-18 16:30N 48°30' W 127°08'714.6
2018-Jun-18 16:00N 48°30' W 127°19'917.1
2018-Jun-18 15:30N 48°30' W 127°32'712.8
2018-Jun-18 14:59N 48°30' W 127°42'1412.1
2018-Jun-18 13:47N 48°30' W 128°04'  

Dump ship's entire track history